sensor_id;sensor_type;location;lat;lon;timestamp;pressure;altitude;pressure_sealevel;temperature;humidity
68948;BME280;55996;49.546;7.400;2024-02-15T00:00:09;98955.13;;;10.07;100.00
68948;BME280;55996;49.546;7.400;2024-02-15T00:02:35;98971.53;;;10.12;100.00
68948;BME280;55996;49.546;7.400;2024-02-15T00:05:00;98967.19;;;10.11;100.00
68948;BME280;55996;49.546;7.400;2024-02-15T00:07:26;98979.25;;;10.16;100.00
68948;BME280;55996;49.546;7.400;2024-02-15T00:09:51;98976.75;;;10.13;100.00
68948;BME280;55996;49.546;7.400;2024-02-15T00:12:18;98982.88;;;10.11;100.00
68948;BME280;55996;49.546;7.400;2024-02-15T00:14:44;98976.84;;;10.09;100.00
68948;BME280;55996;49.546;7.400;2024-02-15T00:17:09;98973.34;;;10.10;100.00
68948;BME280;55996;49.546;7.400;2024-02-15T00:19:37;98968.03;;;10.13;100.00
68948;BME280;55996;49.546;7.400;2024-02-15T00:22:03;98974.06;;;10.15;100.00
68948;BME280;55996;49.546;7.400;2024-02-15T00:24:29;98990.44;;;10.22;100.00
68948;BME280;55996;49.546;7.400;2024-02-15T00:26:56;98986.16;;;10.19;100.00
68948;BME280;55996;49.546;7.400;2024-02-15T00:29:21;98990.66;;;10.14;100.00
68948;BME280;55996;49.546;7.400;2024-02-15T00:31:47;98986.25;;;10.16;100.00
68948;BME280;55996;49.546;7.400;2024-02-15T00:34:12;98993.97;;;10.19;100.00
68948;BME280;55996;49.546;7.400;2024-02-15T00:36:38;98994.88;;;10.20;100.00
68948;BME280;55996;49.546;7.400;2024-02-15T00:39:06;98985.31;;;10.17;100.00
68948;BME280;55996;49.546;7.400;2024-02-15T00:41:33;98984.47;;;10.16;100.00
68948;BME280;55996;49.546;7.400;2024-02-15T00:43:59;98994.16;;;10.13;100.00
68948;BME280;55996;49.546;7.400;2024-02-15T00:46:24;98980.25;;;10.11;100.00
68948;BME280;55996;49.546;7.400;2024-02-15T00:48:52;98981.09;;;10.13;100.00
68948;BME280;55996;49.546;7.400;2024-02-15T00:51:18;98976.75;;;10.12;100.00
68948;BME280;55996;49.546;7.400;2024-02-15T00:53:43;98973.34;;;10.10;100.00
68948;BME280;55996;49.546;7.400;2024-02-15T00:56:08;98987.03;;;10.18;100.00
68948;BME280;55996;49.546;7.400;2024-02-15T00:58:34;98973.13;;;10.17;100.00
68948;BME280;55996;49.546;7.400;2024-02-15T01:00:59;98972.09;;;10.23;100.00
68948;BME280;55996;49.546;7.400;2024-02-15T01:03:24;98986.19;;;10.17;100.00
68948;BME280;55996;49.546;7.400;2024-02-15T01:05:51;98975.03;;;10.11;100.00
68948;BME280;55996;49.546;7.400;2024-02-15T01:08:17;98973.41;;;10.07;100.00
68948;BME280;55996;49.546;7.400;2024-02-15T01:10:42;98971.63;;;10.09;100.00
68948;BME280;55996;49.546;7.400;2024-02-15T01:13:07;98977.78;;;10.06;100.00
68948;BME280;55996;49.546;7.400;2024-02-15T01:15:33;98962.28;;;10.00;100.00
68948;BME280;55996;49.546;7.400;2024-02-15T01:17:59;98971.78;;;10.02;100.00
68948;BME280;55996;49.546;7.400;2024-02-15T01:20:24;98982.19;;;10.04;100.00
68948;BME280;55996;49.546;7.400;2024-02-15T01:22:49;98973.56;;;10.00;100.00
68948;BME280;55996;49.546;7.400;2024-02-15T01:25:16;98977.16;;;9.96;100.00
68948;BME280;55996;49.546;7.400;2024-02-15T01:27:42;98990.13;;;10.01;100.00
68948;BME280;55996;49.546;7.400;2024-02-15T01:30:11;98978.88;;;9.97;100.00
68948;BME280;55996;49.546;7.400;2024-02-15T01:32:36;98981.53;;;9.96;100.00
68948;BME280;55996;49.546;7.400;2024-02-15T01:35:02;98972.88;;;9.94;100.00
68948;BME280;55996;49.546;7.400;2024-02-15T01:37:28;98975.59;;;9.89;100.00
68948;BME280;55996;49.546;7.400;2024-02-15T01:39:53;98978.13;;;9.92;100.00
68948;BME280;55996;49.546;7.400;2024-02-15T01:42:18;98977.31;;;9.90;100.00
68948;BME280;55996;49.546;7.400;2024-02-15T01:44:44;98981.72;;;9.88;100.00
68948;BME280;55996;49.546;7.400;2024-02-15T01:47:10;98969.59;;;9.85;100.00
68948;BME280;55996;49.546;7.400;2024-02-15T01:49:36;98967.03;;;9.84;100.00
68948;BME280;55996;49.546;7.400;2024-02-15T01:52:02;98972.31;;;9.81;100.00
68948;BME280;55996;49.546;7.400;2024-02-15T01:54:29;98984.50;;;9.82;100.00
68948;BME280;55996;49.546;7.400;2024-02-15T01:56:57;98977.84;;;9.68;100.00
68948;BME280;55996;49.546;7.400;2024-02-15T01:59:23;98978.78;;;9.67;100.00
68948;BME280;55996;49.546;7.400;2024-02-15T02:01:48;98961.50;;;9.62;100.00
68948;BME280;55996;49.546;7.400;2024-02-15T02:04:15;98975.44;;;9.61;100.00
68948;BME280;55996;49.546;7.400;2024-02-15T02:06:41;98965.09;;;9.58;100.00
68948;BME280;55996;49.546;7.400;2024-02-15T02:09:10;98967.69;;;9.58;100.00
68948;BME280;55996;49.546;7.400;2024-02-15T02:11:38;98949.69;;;9.47;100.00
68948;BME280;55996;49.546;7.400;2024-02-15T02:14:03;98959.13;;;9.51;100.00
68948;BME280;55996;49.546;7.400;2024-02-15T02:16:30;98953.19;;;9.46;100.00
68948;BME280;55996;49.546;7.400;2024-02-15T02:18:58;98961.72;;;9.52;100.00
68948;BME280;55996;49.546;7.400;2024-02-15T02:21:33;98951.16;;;9.57;100.00
68948;BME280;55996;49.546;7.400;2024-02-15T02:24:02;98938.91;;;9.61;100.00
68948;BME280;55996;49.546;7.400;2024-02-15T02:26:29;98938.84;;;9.62;100.00
68948;BME280;55996;49.546;7.400;2024-02-15T02:28:55;98945.75;;;9.65;100.00
68948;BME280;55996;49.546;7.400;2024-02-15T02:31:20;98939.63;;;9.66;100.00
68948;BME280;55996;49.546;7.400;2024-02-15T02:33:51;98934.63;;;9.58;100.00
68948;BME280;55996;49.546;7.400;2024-02-15T02:36:20;98945.00;;;9.60;100.00
68948;BME280;55996;49.546;7.400;2024-02-15T02:38:45;98939.91;;;9.55;100.00
68948;BME280;55996;49.546;7.400;2024-02-15T02:41:11;98938.34;;;9.48;100.00
68948;BME280;55996;49.546;7.400;2024-02-15T02:43:40;98943.53;;;9.49;100.00
68948;BME280;55996;49.546;7.400;2024-02-15T02:46:06;98950.44;;;9.52;100.00
68948;BME280;55996;49.546;7.400;2024-02-15T02:48:31;98940.81;;;9.54;100.00
68948;BME280;55996;49.546;7.400;2024-02-15T02:50:57;98952.13;;;9.53;100.00
68948;BME280;55996;49.546;7.400;2024-02-15T02:53:23;98952.03;;;9.58;100.00
68948;BME280;55996;49.546;7.400;2024-02-15T02:55:49;98940.06;;;9.49;100.00
68948;BME280;55996;49.546;7.400;2024-02-15T02:58:14;98942.69;;;9.47;100.00
68948;BME280;55996;49.546;7.400;2024-02-15T03:00:39;98941.06;;;9.43;100.00
68948;BME280;55996;49.546;7.400;2024-02-15T03:03:05;98926.41;;;9.37;100.00
68948;BME280;55996;49.546;7.400;2024-02-15T03:05:31;98935.84;;;9.43;100.00
68948;BME280;55996;49.546;7.400;2024-02-15T03:07:56;98939.16;;;9.50;100.00
68948;BME280;55996;49.546;7.400;2024-02-15T03:10:22;98941.75;;;9.51;100.00
68948;BME280;55996;49.546;7.400;2024-02-15T03:12:49;98932.50;;;9.38;100.00
68948;BME280;55996;49.546;7.400;2024-02-15T03:15:15;98927.97;;;9.45;100.00
68948;BME280;55996;49.546;7.400;2024-02-15T03:17:42;98927.03;;;9.47;100.00
68948;BME280;55996;49.546;7.400;2024-02-15T03:20:08;98932.19;;;9.50;100.00
68948;BME280;55996;49.546;7.400;2024-02-15T03:22:38;98938.34;;;9.48;100.00
68948;BME280;55996;49.546;7.400;2024-02-15T03:25:07;98938.25;;;9.51;100.00
68948;BME280;55996;49.546;7.400;2024-02-15T03:27:36;98922.69;;;9.48;100.00
68948;BME280;55996;49.546;7.400;2024-02-15T03:30:06;98931.31;;;9.50;100.00
68948;BME280;55996;49.546;7.400;2024-02-15T03:32:31;98931.31;;;9.51;100.00
68948;BME280;55996;49.546;7.400;2024-02-15T03:34:56;98922.59;;;9.51;100.00
68948;BME280;55996;49.546;7.400;2024-02-15T03:37:22;98930.53;;;9.48;100.00
68948;BME280;55996;49.546;7.400;2024-02-15T03:39:47;98922.56;;;9.52;100.00
68948;BME280;55996;49.546;7.400;2024-02-15T03:42:12;98927.75;;;9.54;100.00
68948;BME280;55996;49.546;7.400;2024-02-15T03:44:38;98920.09;;;9.48;100.00
68948;BME280;55996;49.546;7.400;2024-02-15T03:47:04;98915.81;;;9.44;100.00
68948;BME280;55996;49.546;7.400;2024-02-15T03:49:30;98927.91;;;9.48;100.00
68948;BME280;55996;49.546;7.400;2024-02-15T03:51:57;98933.03;;;9.51;100.00
68948;BME280;55996;49.546;7.400;2024-02-15T03:54:24;98923.63;;;9.45;100.00
68948;BME280;55996;49.546;7.400;2024-02-15T03:56:50;98931.41;;;9.47;100.00
68948;BME280;55996;49.546;7.400;2024-02-15T03:59:20;98923.72;;;9.41;100.00
68948;BME280;55996;49.546;7.400;2024-02-15T04:01:55;98939.19;;;9.48;100.00
68948;BME280;55996;49.546;7.400;2024-02-15T04:04:21;98935.66;;;9.51;100.00
68948;BME280;55996;49.546;7.400;2024-02-15T04:06:49;98938.25;;;9.51;100.00
68948;BME280;55996;49.546;7.400;2024-02-15T04:09:15;98933.19;;;9.45;100.00
68948;BME280;55996;49.546;7.400;2024-02-15T04:11:43;98931.47;;;9.45;100.00
68948;BME280;55996;49.546;7.400;2024-02-15T04:14:08;98938.41;;;9.45;100.00
68948;BME280;55996;49.546;7.400;2024-02-15T04:16:34;98938.34;;;9.48;100.00
68948;BME280;55996;49.546;7.400;2024-02-15T04:19:01;98938.66;;;9.35;100.00
68948;BME280;55996;49.546;7.400;2024-02-15T04:21:26;98940.38;;;9.35;100.00
68948;BME280;55996;49.546;7.400;2024-02-15T04:23:52;98948.16;;;9.38;100.00
68948;BME280;55996;49.546;7.400;2024-02-15T04:26:19;98935.06;;;9.40;100.00
68948;BME280;55996;49.546;7.400;2024-02-15T04:28:45;98929.84;;;9.40;100.00
68948;BME280;55996;49.546;7.400;2024-02-15T04:31:13;98931.56;;;9.41;100.00
68948;BME280;55996;49.546;7.400;2024-02-15T04:33:38;98929.00;;;9.37;100.00
68948;BME280;55996;49.546;7.400;2024-02-15T04:36:05;98918.66;;;9.34;100.00
68948;BME280;55996;49.546;7.400;2024-02-15T04:38:32;98924.00;;;9.30;100.00
68948;BME280;55996;49.546;7.400;2024-02-15T04:41:01;98914.34;;;9.33;100.00
68948;BME280;55996;49.546;7.400;2024-02-15T04:43:28;98924.06;;;9.27;100.00
68948;BME280;55996;49.546;7.400;2024-02-15T04:45:54;98926.78;;;9.22;100.00
68948;BME280;55996;49.546;7.400;2024-02-15T04:48:19;98923.47;;;9.15;100.00
68948;BME280;55996;49.546;7.400;2024-02-15T04:50:45;98908.00;;;9.08;100.00
68948;BME280;55996;49.546;7.400;2024-02-15T04:53:10;98913.34;;;9.01;100.00
68948;BME280;55996;49.546;7.400;2024-02-15T04:55:36;98915.06;;;9.02;100.00
68948;BME280;55996;49.546;7.400;2024-02-15T04:58:02;98913.63;;;8.89;100.00
68948;BME280;55996;49.546;7.400;2024-02-15T05:00:27;98932.81;;;8.86;100.00
68948;BME280;55996;49.546;7.400;2024-02-15T05:02:53;98919.94;;;8.79;100.00
68948;BME280;55996;49.546;7.400;2024-02-15T05:05:19;98927.75;;;8.79;100.00
68948;BME280;55996;49.546;7.400;2024-02-15T05:07:45;98915.75;;;8.71;100.00
68948;BME280;55996;49.546;7.400;2024-02-15T05:10:11;98912.16;;;8.77;100.00
68948;BME280;55996;49.546;7.400;2024-02-15T05:12:37;98914.06;;;8.69;100.00
68948;BME280;55996;49.546;7.400;2024-02-15T05:15:05;98904.66;;;8.62;100.00
68948;BME280;55996;49.546;7.400;2024-02-15T05:17:39;98903.22;;;8.48;100.00
68948;BME280;55996;49.546;7.400;2024-02-15T05:20:11;98899.72;;;8.51;100.00
68948;BME280;55996;49.546;7.400;2024-02-15T05:22:40;98910.88;;;8.56;100.00
68948;BME280;55996;49.546;7.400;2024-02-15T05:25:06;98892.88;;;8.42;100.00
68948;BME280;55996;49.546;7.400;2024-02-15T05:27:33;98897.38;;;8.35;100.00
68948;BME280;55996;49.546;7.400;2024-02-15T05:29:58;98895.56;;;8.39;100.00
68948;BME280;55996;49.546;7.400;2024-02-15T05:32:24;98897.66;;;8.21;100.00
68948;BME280;55996;49.546;7.400;2024-02-15T05:34:51;98894.25;;;8.18;100.00
68948;BME280;55996;49.546;7.400;2024-02-15T05:37:16;98891.84;;;8.07;100.00
68948;BME280;55996;49.546;7.400;2024-02-15T05:39:41;98892.91;;;7.98;100.00
68948;BME280;55996;49.546;7.400;2024-02-15T05:42:07;98888.41;;;8.06;100.00
68948;BME280;55996;49.546;7.400;2024-02-15T05:44:34;98878.13;;;7.99;100.00
68948;BME280;55996;49.546;7.400;2024-02-15T05:47:00;98874.50;;;8.06;100.00
68948;BME280;55996;49.546;7.400;2024-02-15T05:49:25;98875.38;;;8.06;100.00
68948;BME280;55996;49.546;7.400;2024-02-15T05:51:51;98862.66;;;7.93;100.00
68948;BME280;55996;49.546;7.400;2024-02-15T05:54:18;98880.75;;;7.97;100.00
68948;BME280;55996;49.546;7.400;2024-02-15T05:56:43;98872.91;;;8.00;100.00
68948;BME280;55996;49.546;7.400;2024-02-15T05:59:09;98878.91;;;8.02;100.00
68948;BME280;55996;49.546;7.400;2024-02-15T06:01:39;98872.31;;;7.86;100.00
68948;BME280;55996;49.546;7.400;2024-02-15T06:04:06;98870.69;;;7.79;100.00
68948;BME280;55996;49.546;7.400;2024-02-15T06:06:34;98878.38;;;7.85;100.00
68948;BME280;55996;49.546;7.400;2024-02-15T06:08:59;98878.50;;;7.79;100.00
68948;BME280;55996;49.546;7.400;2024-02-15T06:11:25;98865.69;;;7.69;100.00
68948;BME280;55996;49.546;7.400;2024-02-15T06:13:51;98875.91;;;7.79;100.00
68948;BME280;55996;49.546;7.400;2024-02-15T06:16:16;98878.72;;;7.68;100.00
68948;BME280;55996;49.546;7.400;2024-02-15T06:18:41;98877.03;;;7.64;100.00
68948;BME280;55996;49.546;7.400;2024-02-15T06:21:07;98870.16;;;7.61;100.00
68948;BME280;55996;49.546;7.400;2024-02-15T06:23:34;98885.78;;;7.61;100.00
68948;BME280;55996;49.546;7.400;2024-02-15T06:26:00;98885.84;;;7.58;100.00
68948;BME280;55996;49.546;7.400;2024-02-15T06:28:29;98872.81;;;7.58;100.00
68948;BME280;55996;49.546;7.400;2024-02-15T06:31:13;98878.06;;;7.55;100.00
68948;BME280;55996;49.546;7.400;2024-02-15T06:33:57;98879.63;;;7.65;100.00
68948;BME280;55996;49.546;7.400;2024-02-15T06:39:32;98878.25;;;7.46;100.00
68948;BME280;55996;49.546;7.400;2024-02-15T06:42:06;98886.84;;;7.49;100.00
68948;BME280;55996;49.546;7.400;2024-02-15T06:44:32;98882.72;;;7.37;100.00
68948;BME280;55996;49.546;7.400;2024-02-15T06:46:57;98878.47;;;7.32;100.00
68948;BME280;55996;49.546;7.400;2024-02-15T06:49:23;98869.84;;;7.28;100.00
68948;BME280;55996;49.546;7.400;2024-02-15T06:51:50;98873.34;;;7.27;100.00
68948;BME280;55996;49.546;7.400;2024-02-15T06:54:16;98861.97;;;7.33;100.00
68948;BME280;55996;49.546;7.400;2024-02-15T06:56:42;98869.00;;;7.27;100.00
68948;BME280;55996;49.546;7.400;2024-02-15T06:59:08;98870.03;;;7.17;100.00
68948;BME280;55996;49.546;7.400;2024-02-15T07:01:35;98878.69;;;7.18;100.00
68948;BME280;55996;49.546;7.400;2024-02-15T07:04:00;98871.91;;;7.09;100.00
68948;BME280;55996;49.546;7.400;2024-02-15T07:06:28;98880.50;;;7.13;100.00
68948;BME280;55996;49.546;7.400;2024-02-15T07:08:54;98895.09;;;7.21;100.00
68948;BME280;55996;49.546;7.400;2024-02-15T07:11:22;98894.13;;;7.29;100.00
68948;BME280;55996;49.546;7.400;2024-02-15T07:13:47;98892.38;;;7.31;100.00
68948;BME280;55996;49.546;7.400;2024-02-15T07:16:13;98905.50;;;7.21;100.00
68948;BME280;55996;49.546;7.400;2024-02-15T07:18:40;98907.09;;;7.30;100.00
68948;BME280;55996;49.546;7.400;2024-02-15T07:21:05;98914.91;;;7.30;100.00
68948;BME280;55996;49.546;7.400;2024-02-15T07:23:36;98901.03;;;7.31;100.00
68948;BME280;55996;49.546;7.400;2024-02-15T07:26:01;98909.47;;;7.46;100.00
68948;BME280;55996;49.546;7.400;2024-02-15T07:28:29;98918.25;;;7.38;100.00
68948;BME280;55996;49.546;7.400;2024-02-15T07:30:56;98909.75;;;7.27;100.00
68948;BME280;55996;49.546;7.400;2024-02-15T07:33:24;98904.25;;;7.46;100.00
68948;BME280;55996;49.546;7.400;2024-02-15T07:35:50;98898.16;;;7.48;100.00
68948;BME280;55996;49.546;7.400;2024-02-15T07:38:16;98916.84;;;7.69;100.00
68948;BME280;55996;49.546;7.400;2024-02-15T07:40:42;98912.44;;;7.72;100.00
68948;BME280;55996;49.546;7.400;2024-02-15T07:43:07;98910.47;;;7.87;100.00
68948;BME280;55996;49.546;7.400;2024-02-15T07:45:33;98900.09;;;7.84;100.00
68948;BME280;55996;49.546;7.400;2024-02-15T07:48:01;98925.75;;;8.05;100.00
68948;BME280;55996;49.546;7.400;2024-02-15T07:50:30;98909.03;;;8.16;100.00
68948;BME280;55996;49.546;7.400;2024-02-15T07:52:55;98911.44;;;8.27;100.00
68948;BME280;55996;49.546;7.400;2024-02-15T07:55:21;98899.25;;;8.29;100.00
68948;BME280;55996;49.546;7.400;2024-02-15T07:57:46;98923.13;;;8.52;100.00
68948;BME280;55996;49.546;7.400;2024-02-15T08:00:13;98924.56;;;8.66;100.00
68948;BME280;55996;49.546;7.400;2024-02-15T08:02:42;98906.06;;;8.77;100.00
68948;BME280;55996;49.546;7.400;2024-02-15T08:05:09;98914.56;;;8.86;100.00
68948;BME280;55996;49.546;7.400;2024-02-15T08:07:41;98905.00;;;8.87;100.00
68948;BME280;55996;49.546;7.400;2024-02-15T08:10:07;98914.31;;;8.97;100.00
68948;BME280;55996;49.546;7.400;2024-02-15T08:12:46;98908.13;;;9.01;100.00
68948;BME280;55996;49.546;7.400;2024-02-15T08:15:12;98902.72;;;9.11;100.00
68948;BME280;55996;49.546;7.400;2024-02-15T08:20:06;98908.38;;;9.28;100.00
68948;BME280;55996;49.546;7.400;2024-02-15T08:22:33;98907.34;;;9.34;100.00
68948;BME280;55996;49.546;7.400;2024-02-15T08:24:59;98899.31;;;9.43;100.00
68948;BME280;55996;49.546;7.400;2024-02-15T08:27:24;98894.16;;;9.40;100.00
68948;BME280;55996;49.546;7.400;2024-02-15T08:29:50;98897.41;;;9.50;100.00
68948;BME280;55996;49.546;7.400;2024-02-15T08:32:15;98883.41;;;9.52;100.00
68948;BME280;55996;49.546;7.400;2024-02-15T08:34:40;98889.25;;;9.62;100.00
68948;BME280;55996;49.546;7.400;2024-02-15T08:37:06;98877.88;;;9.65;100.00
68948;BME280;55996;49.546;7.400;2024-02-15T08:39:32;98901.47;;;9.62;100.00
68948;BME280;55996;49.546;7.400;2024-02-15T08:41:57;98881.31;;;9.67;100.00
68948;BME280;55996;49.546;7.400;2024-02-15T08:44:24;98877.72;;;9.71;100.00
68948;BME280;55996;49.546;7.400;2024-02-15T08:46:50;98894.69;;;9.88;100.00
68948;BME280;55996;49.546;7.400;2024-02-15T08:49:15;98884.16;;;9.91;100.00
68948;BME280;55996;49.546;7.400;2024-02-15T08:51:40;98865.94;;;9.89;100.00
68948;BME280;55996;49.546;7.400;2024-02-15T08:54:06;98875.09;;;10.04;100.00
68948;BME280;55996;49.546;7.400;2024-02-15T08:56:31;98863.53;;;10.13;100.00
68948;BME280;55996;49.546;7.400;2024-02-15T08:58:58;98876.28;;;10.24;100.00
68948;BME280;55996;49.546;7.400;2024-02-15T09:01:24;98873.56;;;10.27;100.00
68948;BME280;55996;49.546;7.400;2024-02-15T09:03:50;98860.50;;;10.28;100.00
68948;BME280;55996;49.546;7.400;2024-02-15T09:06:15;98858.50;;;10.38;100.00
68948;BME280;55996;49.546;7.400;2024-02-15T09:08:41;98855.59;;;10.47;100.00
68948;BME280;55996;49.546;7.400;2024-02-15T09:11:06;98870.25;;;10.53;100.00
68948;BME280;55996;49.546;7.400;2024-02-15T09:13:36;98863.66;;;10.40;100.00
68948;BME280;55996;49.546;7.400;2024-02-15T09:16:02;98855.66;;;10.46;100.00
68948;BME280;55996;49.546;7.400;2024-02-15T09:18:28;98856.69;;;10.69;100.00
68948;BME280;55996;49.546;7.400;2024-02-15T09:20:53;98859.19;;;10.73;100.00
68948;BME280;55996;49.546;7.400;2024-02-15T09:23:21;98859.78;;;10.81;100.00
68948;BME280;55996;49.546;7.400;2024-02-15T09:25:49;98861.78;;;11.02;100.00
68948;BME280;55996;49.546;7.400;2024-02-15T09:28:15;98864.97;;;11.11;100.00
68948;BME280;55996;49.546;7.400;2024-02-15T09:30:40;98850.69;;;10.93;100.00
68948;BME280;55996;49.546;7.400;2024-02-15T09:33:05;98854.09;;;11.24;100.00
68948;BME280;55996;49.546;7.400;2024-02-15T09:35:31;98857.84;;;11.42;100.00
68948;BME280;55996;49.546;7.400;2024-02-15T09:37:57;98845.09;;;11.31;100.00
68948;BME280;55996;49.546;7.400;2024-02-15T09:40:23;98857.44;;;11.54;100.00
68948;BME280;55996;49.546;7.400;2024-02-15T09:42:52;98846.03;;;11.30;100.00
68948;BME280;55996;49.546;7.400;2024-02-15T09:45:18;98845.56;;;11.17;100.00
68948;BME280;55996;49.546;7.400;2024-02-15T09:47:46;98836.13;;;11.13;100.00
68948;BME280;55996;49.546;7.400;2024-02-15T09:50:16;98844.78;;;11.15;100.00
68948;BME280;55996;49.546;7.400;2024-02-15T09:52:52;98848.97;;;11.46;100.00
68948;BME280;55996;49.546;7.400;2024-02-15T09:55:19;98838.41;;;11.49;100.00
68948;BME280;55996;49.546;7.400;2024-02-15T09:57:49;98835.16;;;11.42;100.00
68948;BME280;55996;49.546;7.400;2024-02-15T10:00:15;98841.03;;;11.49;100.00
68948;BME280;55996;49.546;7.400;2024-02-15T10:02:43;98834.56;;;11.59;100.00
68948;BME280;55996;49.546;7.400;2024-02-15T10:05:12;98846.69;;;11.62;100.00
68948;BME280;55996;49.546;7.400;2024-02-15T10:07:41;98836.59;;;11.76;100.00
68948;BME280;55996;49.546;7.400;2024-02-15T10:10:23;98832.50;;;11.93;100.00
68948;BME280;55996;49.546;7.400;2024-02-15T10:12:49;98832.94;;;12.06;100.00
68948;BME280;55996;49.546;7.400;2024-02-15T10:15:38;98832.94;;;12.06;100.00
68948;BME280;55996;49.546;7.400;2024-02-15T10:18:07;98810.69;;;11.92;100.00
68948;BME280;55996;49.546;7.400;2024-02-15T10:20:34;98823.03;;;12.14;100.00
68948;BME280;55996;49.546;7.400;2024-02-15T10:25:29;98819.38;;;12.42;100.00
68948;BME280;55996;49.546;7.400;2024-02-15T10:30:34;98814.50;;;12.55;100.00
68948;BME280;55996;49.546;7.400;2024-02-15T10:33:00;98810.66;;;12.64;100.00
68948;BME280;55996;49.546;7.400;2024-02-15T10:35:26;98799.16;;;12.68;100.00
68948;BME280;55996;49.546;7.400;2024-02-15T10:37:51;98800.81;;;12.91;100.00
68948;BME280;55996;49.546;7.400;2024-02-15T10:40:18;98800.56;;;12.97;100.00
68948;BME280;55996;49.546;7.400;2024-02-15T10:42:46;98780.31;;;13.01;100.00
68948;BME280;55996;49.546;7.400;2024-02-15T10:45:12;98784.94;;;13.16;100.00
68948;BME280;55996;49.546;7.400;2024-02-15T10:47:40;98780.13;;;13.26;100.00
68948;BME280;55996;49.546;7.400;2024-02-15T10:50:06;98752.38;;;13.20;100.00
68948;BME280;55996;49.546;7.400;2024-02-15T10:52:32;98763.31;;;13.30;100.00
68948;BME280;55996;49.546;7.400;2024-02-15T10:55:04;98760.97;;;13.24;100.00
68948;BME280;55996;49.546;7.400;2024-02-15T10:57:37;98753.28;;;13.19;100.00
68948;BME280;55996;49.546;7.400;2024-02-15T11:00:05;98768.16;;;13.41;100.00
68948;BME280;55996;49.546;7.400;2024-02-15T11:02:57;98766.56;;;13.58;100.00
68948;BME280;55996;49.546;7.400;2024-02-15T11:05:29;98776.66;;;13.67;100.00
68948;BME280;55996;49.546;7.400;2024-02-15T11:07:57;98760.94;;;13.65;100.00
68948;BME280;55996;49.546;7.400;2024-02-15T11:10:23;98763.53;;;13.67;100.00
68948;BME280;55996;49.546;7.400;2024-02-15T11:12:50;98761.81;;;13.66;100.00
68948;BME280;55996;49.546;7.400;2024-02-15T11:18:01;98744.28;;;13.66;100.00
68948;BME280;55996;49.546;7.400;2024-02-15T11:23:03;98740.25;;;13.78;100.00
68948;BME280;55996;49.546;7.400;2024-02-15T11:25:36;98734.56;;;13.87;100.00
68948;BME280;55996;49.546;7.400;2024-02-15T11:30:52;98752.59;;;13.95;100.00
68948;BME280;55996;49.546;7.400;2024-02-15T11:33:31;98747.50;;;14.11;100.00
68948;BME280;55996;49.546;7.400;2024-02-15T11:38:30;98747.16;;;14.19;100.00
68948;BME280;55996;49.546;7.400;2024-02-15T11:46:08;98729.94;;;14.31;100.00
68948;BME280;55996;49.546;7.400;2024-02-15T11:48:36;98744.63;;;14.35;100.00
68948;BME280;55996;49.546;7.400;2024-02-15T11:51:04;98718.44;;;14.51;100.00
68948;BME280;55996;49.546;7.400;2024-02-15T11:53:31;98722.56;;;14.57;100.00
68948;BME280;55996;49.546;7.400;2024-02-15T11:56:00;98703.84;;;14.63;100.00
68948;BME280;55996;49.546;7.400;2024-02-15T11:58:27;98717.44;;;14.73;100.00
68948;BME280;55996;49.546;7.400;2024-02-15T12:01:08;98720.50;;;14.81;100.00
68948;BME280;55996;49.546;7.400;2024-02-15T12:03:54;98707.44;;;14.79;100.00
68948;BME280;55996;49.546;7.400;2024-02-15T12:06:39;98710.06;;;14.79;100.00
68948;BME280;55996;49.546;7.400;2024-02-15T12:09:23;98712.09;;;14.74;100.00
68948;BME280;55996;49.546;7.400;2024-02-15T12:12:09;98706.59;;;14.60;100.00
68948;BME280;55996;49.546;7.400;2024-02-15T12:15:03;98708.38;;;14.96;100.00
68948;BME280;55996;49.546;7.400;2024-02-15T12:17:47;98697.69;;;14.99;100.00
68948;BME280;55996;49.546;7.400;2024-02-15T12:20:31;98694.41;;;14.59;100.00
68948;BME280;55996;49.546;7.400;2024-02-15T12:22:57;98693.03;;;14.87;100.00
68948;BME280;55996;49.546;7.400;2024-02-15T12:25:25;98680.66;;;14.89;100.00
68948;BME280;55996;49.546;7.400;2024-02-15T12:27:54;98685.75;;;14.92;100.00
68948;BME280;55996;49.546;7.400;2024-02-15T12:30:20;98675.00;;;14.79;100.00
68948;BME280;55996;49.546;7.400;2024-02-15T12:32:47;98664.88;;;14.89;100.00
68948;BME280;55996;49.546;7.400;2024-02-15T12:35:14;98656.88;;;14.90;100.00
68948;BME280;55996;49.546;7.400;2024-02-15T12:38:03;98671.22;;;15.02;100.00
68948;BME280;55996;49.546;7.400;2024-02-15T12:40:32;98661.72;;;15.15;100.00
68948;BME280;55996;49.546;7.400;2024-02-15T12:42:58;98662.13;;;15.08;100.00
68948;BME280;55996;49.546;7.400;2024-02-15T12:45:26;98656.69;;;14.77;100.00
68948;BME280;55996;49.546;7.400;2024-02-15T12:47:55;98665.00;;;14.85;100.00
68948;BME280;55996;49.546;7.400;2024-02-15T12:50:22;98655.34;;;14.86;100.00
68948;BME280;55996;49.546;7.400;2024-02-15T12:52:49;98658.97;;;15.01;100.00
68948;BME280;55996;49.546;7.400;2024-02-15T12:55:19;98655.41;;;15.02;100.00
68948;BME280;55996;49.546;7.400;2024-02-15T13:00:23;98640.66;;;15.15;100.00
68948;BME280;55996;49.546;7.400;2024-02-15T13:02:54;98642.41;;;15.32;100.00
68948;BME280;55996;49.546;7.400;2024-02-15T13:05:22;98629.16;;;15.34;100.00
68948;BME280;55996;49.546;7.400;2024-02-15T13:07:49;98631.06;;;15.48;100.00
68948;BME280;55996;49.546;7.400;2024-02-15T13:10:15;98633.75;;;15.46;100.00
68948;BME280;55996;49.546;7.400;2024-02-15T13:12:44;98614.38;;;15.47;100.00
68948;BME280;55996;49.546;7.400;2024-02-15T13:15:15;98623.78;;;15.20;100.00
68948;BME280;55996;49.546;7.400;2024-02-15T13:17:46;98609.63;;;15.38;93.55
68948;BME280;55996;49.546;7.400;2024-02-15T13:20:14;98618.47;;;15.37;89.12
68948;BME280;55996;49.546;7.400;2024-02-15T13:22:43;98612.34;;;15.53;91.31
68948;BME280;55996;49.546;7.400;2024-02-15T13:25:10;98614.22;;;15.51;91.26